Time;durP1;ratioP1;P1;durP2;ratioP2;P2;SDS_P1;SDS_P2;PMS_P1;PMS_P2;Temp;Humidity;BMP_temperature;BMP_pressure;BME280_temperature;BME280_humidity;BME280_pressure;Samples;Min_cycle;Max_cycle;Signal;HPM_P1;HPM_P2
2022/04/25 00:01:48;;;;;;;;;;;;;;;12.31;59.87;98588.09;4309439;33;20224;-96
2022/04/25 00:04:14;;;;;;;;;;;;;;;12.31;59.87;98581.09;4309555;33;20007;-96
2022/04/25 00:06:39;;;;;;;;;;;;;;;12.17;59.86;98588.84;4309144;33;19992;-95
2022/04/25 00:09:04;;;;;;;;;;;;;;;12.21;59.86;98585.13;4309642;33;20007;-95
2022/04/25 00:11:29;;;;;;;;;;;;;;;12.11;59.85;98589.22;4309212;33;20314;-94
2022/04/25 00:13:56;;;;;;;;;;;;;;;11.98;59.84;98589.06;4308234;33;21450;-91
2022/04/25 00:16:21;;;;;;;;;;;;;;;11.86;59.84;98585.38;4307904;33;20006;-92
2022/04/25 00:18:48;;;;;;;;;;;;;;;11.99;59.85;98583.75;4308308;33;20003;-94
2022/04/25 00:21:14;;;;;;;;;;;;;;;12.02;59.85;98589.72;4309631;33;19980;-95
2022/04/25 00:23:39;;;;;;;;;;;;;;;12.01;59.85;98580.22;4309005;33;20002;-95
2022/04/25 00:26:05;;;;;;;;;;;;;;;11.80;59.84;98574.44;4309458;33;20040;-93
2022/04/25 00:28:30;;;;;;;;;;;;;;;11.72;59.84;98577.44;4309151;33;20000;-93
2022/04/25 00:30:55;;;;;;;;;;;;;;;11.71;59.83;98583.56;4309018;33;20349;-95
2022/04/25 00:33:20;;;;;;;;;;;;;;;11.77;59.84;98577.16;4308621;33;22456;-96
2022/04/25 00:35:46;;;;;;;;;;;;;;;11.61;59.83;98575.44;4309136;33;19999;-95
2022/04/25 00:38:11;;;;;;;;;;;;;;;11.75;59.83;98576.41;4309039;33;20023;-96
2022/04/25 00:40:36;;;;;;;;;;;;;;;11.83;59.84;98574.25;4308947;33;19976;-94
2022/04/25 00:43:01;;;;;;;;;;;;;;;11.73;59.83;98571.28;4308784;33;19995;-95
2022/04/25 00:45:27;;;;;;;;;;;;;;;11.56;59.82;98573.97;4308796;33;20010;-96
2022/04/25 00:47:52;;;;;;;;;;;;;;;11.43;59.81;98571.22;4308576;33;20015;-95
2022/04/25 00:50:17;;;;;;;;;;;;;;;11.41;59.81;98572.22;4308521;33;19980;-95
2022/04/25 00:52:43;;;;;;;;;;;;;;;11.24;59.81;98576.56;4308200;33;20278;-95
2022/04/25 00:55:08;;;;;;;;;;;;;;;11.38;59.81;98578.44;4308101;33;20035;-95
2022/04/25 00:57:34;;;;;;;;;;;;;;;11.35;59.80;98582.03;4308244;33;19994;-95
2022/04/25 00:59:59;;;;;;;;;;;;;;;11.42;59.82;98579.12;4308652;33;20044;-92
2022/04/25 01:02:28;;;;;;;;;;;;;;;11.54;59.82;98589.69;4308844;33;19980;-92
2022/04/25 01:04:56;;;;;;;;;;;;;;;11.43;59.81;98586.00;4309120;33;20004;-95
2022/04/25 01:07:21;;;;;;;;;;;;;;;11.53;59.82;98587.19;4308870;33;19964;-95
2022/04/25 01:09:47;;;;;;;;;;;;;;;11.45;59.81;98591.97;4308592;33;19999;-95
2022/04/25 01:12:12;;;;;;;;;;;;;;;11.60;59.83;98589.38;4307972;33;20565;-95
2022/04/25 01:14:38;;;;;;;;;;;;;;;11.66;59.83;98593.41;4308795;33;19984;-95
2022/04/25 01:17:03;;;;;;;;;;;;;;;11.67;59.83;98590.72;4308634;33;20035;-95
2022/04/25 01:19:28;;;;;;;;;;;;;;;11.73;59.83;98592.16;4296615;33;20016;-96
2022/04/25 01:22:07;;;;;;;;;;;;;;;11.71;59.83;98595.78;4308330;33;20041;-95
2022/04/25 01:27:16;;;;;;;;;;;;;;;11.89;59.84;98594.78;4311314;33;19996;-95
2022/04/25 01:29:44;;;;;;;;;;;;;;;11.87;59.84;98601.84;4308760;33;20271;-95
2022/04/25 01:32:09;;;;;;;;;;;;;;;11.86;59.84;98594.97;4308513;33;20048;-95
2022/04/25 01:34:38;;;;;;;;;;;;;;;12.03;59.84;98587.00;4308648;33;19993;-96
2022/04/25 01:37:11;;;;;;;;;;;;;;;12.26;59.86;98588.31;4307928;33;20026;-94
2022/04/25 01:39:37;;;;;;;;;;;;;;;12.35;59.88;98585.19;4307686;33;19988;-93
2022/04/25 01:42:03;;;;;;;;;;;;;;;12.60;59.88;98577.63;4307591;33;20023;-94
2022/04/25 01:44:28;;;;;;;;;;;;;;;12.74;59.89;98575.94;4307616;33;19992;-93
2022/04/25 01:46:53;;;;;;;;;;;;;;;12.90;59.90;98579.34;4307736;33;20346;-94
2022/04/25 01:49:19;;;;;;;;;;;;;;;13.08;59.91;98572.16;4307673;33;19991;-94
2022/04/25 01:51:45;;;;;;;;;;;;;;;13.27;59.92;98564.91;4307928;33;20057;-94
2022/04/25 01:54:10;;;;;;;;;;;;;;;13.41;59.92;98567.50;4307136;33;20031;-91
2022/04/25 01:56:35;;;;;;;;;;;;;;;13.62;59.93;98567.09;4307235;33;19996;-93
2022/04/25 01:59:01;;;;;;;;;;;;;;;13.77;59.95;98563.50;4307306;33;19993;-90
2022/04/25 02:01:26;;;;;;;;;;;;;;;13.81;59.95;98563.22;4307034;33;19980;-91
2022/04/25 02:03:52;;;;;;;;;;;;;;;13.87;59.94;98563.75;4308174;33;19985;-92
2022/04/25 02:06:17;;;;;;;;;;;;;;;13.97;59.96;98563.06;4308202;33;20314;-93
2022/04/25 02:08:43;;;;;;;;;;;;;;;14.05;59.96;98549.50;4307961;33;20019;-93
2022/04/25 02:11:21;;;;;;;;;;;;;;;14.06;59.95;98556.41;4307879;33;19987;-92
2022/04/25 02:13:48;;;;;;;;;;;;;;;14.06;59.96;98559.00;4309090;33;19996;-94
2022/04/25 02:16:14;;;;;;;;;;;;;;;13.96;59.96;98544.84;4307942;33;20357;-93
2022/04/25 02:18:40;;;;;;;;;;;;;;;14.09;59.95;98553.56;4307959;33;19980;-91
2022/04/25 02:21:05;;;;;;;;;;;;;;;14.20;59.96;98545.03;4307071;33;19988;-91
2022/04/25 02:23:31;;;;;;;;;;;;;;;14.14;59.96;98549.72;4306728;33;19980;-90
2022/04/25 02:25:56;;;;;;;;;;;;;;;14.22;59.97;98535.31;4306835;33;20027;-93
2022/04/25 02:28:21;;;;;;;;;;;;;;;14.13;59.96;98544.59;4307478;33;20330;-95
2022/04/25 02:30:46;;;;;;;;;;;;;;;14.09;59.96;98548.34;4308225;33;20877;-96
2022/04/25 02:33:12;;;;;;;;;;;;;;;14.17;59.96;98555.69;4311048;33;23652;-93
2022/04/25 02:35:37;;;;;;;;;;;;;;;14.17;59.96;98563.53;4311053;33;19992;-96
2022/04/25 02:38:03;;;;;;;;;;;;;;;14.23;59.97;98561.37;4309130;33;19971;-95
2022/04/25 02:40:28;;;;;;;;;;;;;;;14.20;59.97;98572.06;4308131;33;19980;-94
2022/04/25 02:42:53;;;;;;;;;;;;;;;14.30;59.97;98577.50;4308161;33;20337;-94
2022/04/25 02:45:18;;;;;;;;;;;;;;;14.28;59.97;98576.78;4308635;33;20048;-96
2022/04/25 02:47:45;;;;;;;;;;;;;;;14.18;59.97;98568.66;4308335;33;20012;-96
2022/04/25 02:50:11;;;;;;;;;;;;;;;14.09;59.96;98580.59;4308560;33;19985;-95
2022/04/25 02:52:36;;;;;;;;;;;;;;;14.16;59.96;98594.09;4307557;33;20003;-91
2022/04/25 02:55:01;;;;;;;;;;;;;;;14.21;59.97;98602.50;4307366;33;20267;-92
2022/04/25 02:57:26;;;;;;;;;;;;;;;14.18;59.97;98607.91;4307856;33;20003;-94
2022/04/25 02:59:52;;;;;;;;;;;;;;;14.18;59.97;98613.16;4308990;33;19980;-94
2022/04/25 03:02:17;;;;;;;;;;;;;;;14.13;59.97;98610.00;4309613;33;20016;-94
2022/04/25 03:04:42;;;;;;;;;;;;;;;14.10;59.96;98616.28;4309051;33;19996;-95
2022/04/25 03:07:08;;;;;;;;;;;;;;;14.10;59.96;98621.50;4308278;33;20004;-96
2022/04/25 03:09:33;;;;;;;;;;;;;;;14.10;59.96;98616.28;4308278;33;20028;-96
2022/04/25 03:11:58;;;;;;;;;;;;;;;14.03;59.96;98632.47;4308515;33;19992;-96
2022/04/25 03:14:24;;;;;;;;;;;;;;;14.08;59.96;98640.88;4308331;33;20023;-96
2022/04/25 03:16:49;;;;;;;;;;;;;;;14.14;59.96;98632.62;4307893;33;20015;-96
2022/04/25 03:19:17;;;;;;;;;;;;;;;14.14;59.96;98638.69;4309250;33;19983;-96
2022/04/25 03:21:42;;;;;;;;;;;;;;;13.85;59.94;98639.72;4310601;33;20728;-95
2022/04/25 03:24:08;;;;;;;;;;;;;;;14.07;59.96;98644.41;4310085;33;20031;-96
2022/04/25 03:26:34;;;;;;;;;;;;;;;14.08;59.95;98631.25;4310410;33;19995;-95
2022/04/25 03:29:01;;;;;;;;;;;;;;;14.15;59.96;98636.91;4326330;33;19980;-96
2022/04/25 03:31:27;;;;;;;;;;;;;;;14.16;59.96;98638.59;4314516;33;19988;-96
2022/04/25 03:33:53;;;;;;;;;;;;;;;14.13;59.96;98641.41;4314808;33;20010;-96
2022/04/25 03:36:20;;;;;;;;;;;;;;;14.03;59.96;98642.94;4317611;33;19952;-96
2022/04/25 03:38:46;;;;;;;;;;;;;;;13.83;59.95;98647.66;4318083;33;19956;-96
2022/04/25 03:41:12;;;;;;;;;;;;;;;13.90;59.96;98649.88;4326890;33;19984;-94
2022/04/25 03:43:37;;;;;;;;;;;;;;;13.94;59.95;98640.88;4309104;33;20039;-93
2022/04/25 03:46:02;;;;;;;;;;;;;;;13.97;59.96;98636.34;4309250;33;20390;-91
2022/04/25 03:48:28;;;;;;;;;;;;;;;13.96;59.96;98639.00;4307741;33;20003;-90
2022/04/25 03:50:53;;;;;;;;;;;;;;;14.08;59.96;98635.63;4307471;33;19992;-91
2022/04/25 03:53:18;;;;;;;;;;;;;;;14.09;59.97;98627.69;4307377;33;20007;-89
2022/04/25 03:58:27;;;;;;;;;;;;;;;14.08;59.96;98623.38;4309385;33;19986;-89
2022/04/25 04:00:53;;;;;;;;;;;;;;;14.10;59.96;98624.13;4307940;33;19985;-91
2022/04/25 04:03:19;;;;;;;;;;;;;;;13.95;59.96;98629.50;4309169;33;20344;-93
2022/04/25 04:05:47;;;;;;;;;;;;;;;13.98;59.96;98635.38;4296740;33;20298;-92
2022/04/25 04:08:12;;;;;;;;;;;;;;;13.96;59.96;98633.78;4308722;33;19976;-92
2022/04/25 04:10:38;;;;;;;;;;;;;;;13.76;59.94;98646.38;4308094;33;20133;-92
2022/04/25 04:13:04;;;;;;;;;;;;;;;13.90;59.95;98650.72;4307208;33;21955;-90
2022/04/25 04:15:29;;;;;;;;;;;;;;;13.86;59.94;98654.47;4308471;33;19984;-92
2022/04/25 04:17:55;;;;;;;;;;;;;;;13.91;59.95;98651.56;4309095;33;19983;-91
2022/04/25 04:20:20;;;;;;;;;;;;;;;13.85;59.94;98655.41;4307372;33;20001;-95
2022/04/25 04:22:45;;;;;;;;;;;;;;;13.76;59.94;98648.97;4309066;33;19996;-94
2022/04/25 04:25:13;;;;;;;;;;;;;;;13.63;59.93;98658.50;4308879;33;19985;-94
2022/04/25 04:27:39;;;;;;;;;;;;;;;13.88;59.95;98657.81;4308932;33;19990;-93
2022/04/25 04:30:06;;;;;;;;;;;;;;;13.90;59.95;98655.09;4308495;33;19981;-93
2022/04/25 04:32:32;;;;;;;;;;;;;;;13.86;59.94;98653.63;4308539;33;20020;-92
2022/04/25 04:34:57;;;;;;;;;;;;;;;13.76;59.94;98651.59;4308583;33;19968;-93
2022/04/25 04:37:23;;;;;;;;;;;;;;;13.90;59.95;98657.72;4308244;33;19980;-93
2022/04/25 04:39:48;;;;;;;;;;;;;;;13.89;59.96;98659.50;4308448;33;19988;-92
2022/04/25 04:42:13;;;;;;;;;;;;;;;14.12;59.96;98669.34;4308147;33;20467;-92
2022/04/25 04:44:41;;;;;;;;;;;;;;;14.09;59.96;98663.47;4308419;33;20027;-94
2022/04/25 04:47:06;;;;;;;;;;;;;;;14.19;59.97;98658.47;4308613;33;19988;-93
2022/04/25 04:49:31;;;;;;;;;;;;;;;13.95;59.94;98661.72;4308567;33;20015;-94
2022/04/25 04:51:56;;;;;;;;;;;;;;;13.98;59.95;98664.16;4308752;33;19996;-93
2022/04/25 04:54:22;;;;;;;;;;;;;;;14.00;59.95;98670.16;4309197;33;20132;-94
2022/04/25 04:56:47;;;;;;;;;;;;;;;14.21;59.97;98673.19;4308823;33;20238;-94
2022/04/25 04:59:13;;;;;;;;;;;;;;;14.28;59.97;98664.00;4309479;33;20756;-93
2022/04/25 05:01:38;;;;;;;;;;;;;;;14.34;59.98;98681.06;4308800;33;20006;-93
2022/04/25 05:04:04;;;;;;;;;;;;;;;14.55;60.00;98678.88;4307674;33;19992;-94
2022/04/25 05:06:29;;;;;;;;;;;;;;;14.59;59.99;98680.34;4308313;33;20064;-93
2022/04/25 05:08:54;;;;;;;;;;;;;;;14.66;59.99;98676.38;4308029;33;20023;-94
2022/04/25 05:11:20;;;;;;;;;;;;;;;14.76;59.99;98680.09;4307453;33;19988;-94
2022/04/25 05:13:45;;;;;;;;;;;;;;;14.74;60.00;98679.34;4307876;33;20028;-94
2022/04/25 05:16:10;;;;;;;;;;;;;;;14.85;60.00;98676.84;4307996;33;19991;-95
2022/04/25 05:18:35;;;;;;;;;;;;;;;14.99;60.00;98682.03;4308018;33;19984;-94
2022/04/25 05:21:01;;;;;;;;;;;;;;;15.04;60.01;98684.34;4308056;33;20369;-94
2022/04/25 05:23:26;;;;;;;;;;;;;;;15.07;60.01;98675.41;4307977;33;19980;-93
2022/04/25 05:25:51;;;;;;;;;;;;;;;15.02;60.00;98675.72;4295887;33;20006;-92
2022/04/25 05:28:17;;;;;;;;;;;;;;;14.91;60.00;98683.50;4307654;33;20303;-93
2022/04/25 05:30:43;;;;;;;;;;;;;;;15.05;60.01;98681.59;4307769;33;20000;-94
2022/04/25 05:33:09;;;;;;;;;;;;;;;15.17;60.03;98681.72;4308236;33;19980;-92
2022/04/25 05:35:35;;;;;;;;;;;;;;;15.20;60.02;98678.91;4307817;33;20046;-93
2022/04/25 05:38:00;;;;;;;;;;;;;;;15.01;60.00;98682.75;4308085;33;20360;-94
2022/04/25 05:40:26;;;;;;;;;;;;;;;15.07;60.01;98681.50;4307825;33;20044;-94
2022/04/25 05:42:51;;;;;;;;;;;;;;;15.04;60.02;98679.94;4307446;33;19984;-93
2022/04/25 05:45:18;;;;;;;;;;;;;;;15.10;60.02;98678.66;4307898;33;19989;-93
2022/04/25 05:47:43;;;;;;;;;;;;;;;15.10;60.02;98689.16;4308278;33;19988;-93
2022/04/25 05:52:52;;;;;;;;;;;;;;;14.95;60.01;98687.56;4309933;33;20666;-94
2022/04/25 05:55:18;;;;;;;;;;;;;;;15.20;60.02;98694.62;4307747;33;20261;-93
2022/04/25 05:57:43;;;;;;;;;;;;;;;15.27;60.03;98683.63;4307053;33;20004;-93
2022/04/25 06:00:09;;;;;;;;;;;;;;;15.41;60.04;98687.09;4306949;33;20338;-90
2022/04/25 06:02:41;;;;;;;;;;;;;;;15.49;60.03;98688.22;4307185;33;19999;-92
2022/04/25 06:05:06;;;;;;;;;;;;;;;15.64;60.04;98681.97;4306848;33;19984;-90
2022/04/25 06:07:33;;;;;;;;;;;;;;;15.78;60.06;98686.22;4306724;33;20007;-93
2022/04/25 06:09:58;;;;;;;;;;;;;;;15.79;60.05;98682.66;4307621;33;20640;-93
2022/04/25 06:12:23;;;;;;;;;;;;;;;15.86;60.06;98685.72;4307055;33;20386;-93
2022/04/25 06:14:48;;;;;;;;;;;;;;;16.01;60.07;98683.78;4307310;33;20262;-94
2022/04/25 06:17:15;;;;;;;;;;;;;;;16.12;60.07;98681.25;4306700;33;20011;-92
2022/04/25 06:19:41;;;;;;;;;;;;;;;16.23;60.08;98678.66;4307122;33;20007;-91
2022/04/25 06:22:06;;;;;;;;;;;;;;;16.38;60.08;98681.97;4294554;33;20008;-92
2022/04/25 06:24:31;;;;;;;;;;;;;;;16.49;60.09;98677.59;4306902;33;20006;-93
2022/04/25 06:26:57;;;;;;;;;;;;;;;16.63;60.10;98681.03;4306895;33;20014;-93
2022/04/25 06:29:24;;;;;;;;;;;;;;;16.80;60.10;98673.59;4307307;33;20044;-91
2022/04/25 06:31:49;;;;;;;;;;;;;;;16.85;60.11;98676.72;4307009;33;19961;-94
2022/04/25 06:34:14;;;;;;;;;;;;;;;16.94;60.11;98676.97;4307321;33;20059;-93
2022/04/25 06:36:40;;;;;;;;;;;;;;;17.12;60.12;98680.84;4307046;33;20031;-92
2022/04/25 06:39:05;;;;;;;;;;;;;;;17.31;60.14;98677.66;4306346;33;20330;-94
2022/04/25 06:41:30;;;;;;;;;;;;;;;17.42;60.14;98683.75;4307090;33;20310;-94
2022/04/25 06:43:58;;;;;;;;;;;;;;;17.39;60.14;98691.06;4307012;33;19980;-93
2022/04/25 06:46:24;;;;;;;;;;;;;;;17.52;60.14;98689.19;4307546;33;20043;-94
2022/04/25 06:51:33;;;;;;;;;;;;;;;17.64;60.15;98687.38;4309994;33;19991;-94
2022/04/25 06:53:59;;;;;;;;;;;;;;;17.82;60.16;98693.88;4308920;33;19996;-94
2022/04/25 06:56:24;;;;;;;;;;;;;;;18.04;60.17;98704.38;4309985;33;20007;-91
2022/04/25 06:58:49;;;;;;;;;;;;;;;18.03;60.18;98707.97;4309111;33;20043;-94
2022/04/25 07:01:14;;;;;;;;;;;;;;;17.99;60.17;98703.09;4308903;33;20008;-94
2022/04/25 07:03:40;;;;;;;;;;;;;;;17.99;60.17;98701.28;4308217;33;19991;-91
2022/04/25 07:06:05;;;;;;;;;;;;;;;18.12;60.18;98697.66;4296505;33;20002;-94
2022/04/25 07:08:30;;;;;;;;;;;;;;;18.16;60.19;98707.81;4308338;33;20081;-94
2022/04/25 07:10:55;;;;;;;;;;;;;;;18.13;60.18;98707.25;4307914;33;22503;-94
2022/04/25 07:13:21;;;;;;;;;;;;;;;18.02;60.17;98716.00;4308470;33;20004;-94
2022/04/25 07:15:46;;;;;;;;;;;;;;;17.89;60.16;98713.47;4308108;33;22895;-93
2022/04/25 07:18:13;;;;;;;;;;;;;;;17.99;60.17;98717.09;4308686;33;19995;-95
2022/04/25 07:20:38;;;;;;;;;;;;;;;18.08;60.18;98723.41;4308495;33;19999;-93
2022/04/25 07:28:50;;;;;;;;;;;;;;;18.37;60.19;98713.19;4310690;33;20030;-92
2022/04/25 07:31:19;;;;;;;;;;;;;;;18.56;60.20;98704.63;4310231;33;20749;-94
2022/04/25 07:33:45;;;;;;;;;;;;;;;18.54;60.19;98709.19;4308447;33;20039;-94
2022/04/25 07:36:11;;;;;;;;;;;;;;;18.65;60.21;98711.81;4308320;33;19996;-93
2022/04/25 07:38:36;;;;;;;;;;;;;;;18.96;60.22;98704.87;4307926;33;20012;-93
2022/04/25 07:41:02;;;;;;;;;;;;;;;19.26;60.24;98694.38;4308119;33;19980;-94
2022/04/25 07:43:29;;;;;;;;;;;;;;;19.27;60.24;98705.78;4308087;33;19987;-93
2022/04/25 07:45:54;;;;;;;;;;;;;;;19.32;60.25;98703.56;4308718;33;20591;-94
2022/04/25 07:48:19;;;;;;;;;;;;;;;19.46;60.24;98715.63;4308552;33;19996;-95
2022/04/25 07:50:45;;;;;;;;;;;;;;;19.60;60.26;98718.75;4308414;33;20007;-95
2022/04/25 07:53:10;;;;;;;;;;;;;;;19.77;60.27;98719.13;4308727;33;20032;-93
2022/04/25 07:55:35;;;;;;;;;;;;;;;19.96;60.28;98716.59;4308413;33;20030;-94
2022/04/25 07:58:01;;;;;;;;;;;;;;;19.81;60.27;98716.09;4307749;33;20796;-94
2022/04/25 08:00:27;;;;;;;;;;;;;;;19.58;60.26;98715.41;4307989;33;19998;-94
2022/04/25 08:02:52;;;;;;;;;;;;;;;19.40;60.25;98721.37;4308359;33;19988;-94
2022/04/25 08:05:17;;;;;;;;;;;;;;;19.51;60.25;98718.69;4307921;33;20274;-94
2022/04/25 08:07:42;;;;;;;;;;;;;;;19.54;60.26;98724.56;4307940;33;20000;-92
2022/04/25 08:10:08;;;;;;;;;;;;;;;19.87;60.27;98718.22;4308012;33;19980;-92
2022/04/25 08:18:01;;;;;;;;;;;;;;;20.01;60.28;98716.16;4321700;33;20039;-93
2022/04/25 08:20:30;;;;;;;;;;;;;;;20.10;60.29;98716.19;4308204;33;19980;-93
2022/04/25 08:22:56;;;;;;;;;;;;;;;20.11;60.29;98715.25;4308348;33;19992;-94
2022/04/25 08:25:21;;;;;;;;;;;;;;;20.16;60.29;98722.78;4308155;33;20015;-93
2022/04/25 08:27:47;;;;;;;;;;;;;;;20.29;60.30;98725.16;4295995;33;20000;-95
2022/04/25 08:30:12;;;;;;;;;;;;;;;20.27;60.29;98717.38;4308016;33;19984;-93
2022/04/25 08:32:37;;;;;;;;;;;;;;;20.41;60.31;98722.31;4308054;33;19991;-94
2022/04/25 08:35:03;;;;;;;;;;;;;;;20.46;60.31;98722.72;4295268;33;28167;-92
2022/04/25 08:37:28;;;;;;;;;;;;;;;20.53;60.30;98730.94;4308049;33;19996;-94
2022/04/25 08:39:53;;;;;;;;;;;;;;;20.67;60.31;98717.34;4308039;33;19975;-90
2022/04/25 08:42:19;;;;;;;;;;;;;;;20.78;60.33;98732.22;4308048;33;20019;-92
2022/04/25 08:44:44;;;;;;;;;;;;;;;20.58;60.31;98733.16;4308391;33;20006;-94
2022/04/25 08:47:09;;;;;;;;;;;;;;;20.30;60.30;98737.41;4308410;33;19996;-93
2022/04/25 08:49:35;;;;;;;;;;;;;;;20.57;60.31;98737.63;4308720;33;20015;-92
2022/04/25 08:52:00;;;;;;;;;;;;;;;20.45;60.30;98741.38;4308102;33;20325;-93
2022/04/25 08:54:29;;;;;;;;;;;;;;;20.22;60.29;98738.91;4307387;33;20032;-93
2022/04/25 08:56:54;;;;;;;;;;;;;;;20.32;60.30;98740.75;4307709;33;20388;-94
2022/04/25 08:59:19;;;;;;;;;;;;;;;20.32;60.30;98741.56;4307146;33;21423;-94
2022/04/25 09:01:45;;;;;;;;;;;;;;;20.58;60.31;98746.38;4306969;33;28335;-94
2022/04/25 09:04:10;;;;;;;;;;;;;;;20.73;60.32;98739.75;4307661;33;20027;-93
2022/04/25 09:06:35;;;;;;;;;;;;;;;20.68;60.32;98747.25;4307546;33;20262;-92
2022/04/25 09:09:01;;;;;;;;;;;;;;;20.80;60.33;98751.44;4307664;33;20031;-94
2022/04/25 09:14:10;;;;;;;;;;;;;;;20.88;60.33;98748.94;4309719;33;20039;-92
2022/04/25 09:16:35;;;;;;;;;;;;;;;20.89;60.33;98749.78;4306487;33;20052;-95
2022/04/25 09:19:00;;;;;;;;;;;;;;;21.04;60.34;98756.31;4307433;33;19988;-94
2022/04/25 09:21:26;;;;;;;;;;;;;;;21.00;60.33;98757.56;4307237;33;19996;-94
2022/04/25 09:23:51;;;;;;;;;;;;;;;20.90;60.33;98756.75;4307600;33;20044;-93
2022/04/25 09:26:21;;;;;;;;;;;;;;;20.99;60.33;98762.03;4307582;33;19999;-93
2022/04/25 09:28:49;;;;;;;;;;;;;;;21.19;60.35;98762.03;4307878;33;19988;-94
2022/04/25 09:31:15;;;;;;;;;;;;;;;21.39;60.36;98759.25;4307490;33;20640;-95
2022/04/25 09:33:40;;;;;;;;;;;;;;;21.18;60.34;98766.50;4307657;33;19992;-95
2022/04/25 09:36:06;;;;;;;;;;;;;;;21.22;60.34;98770.53;4307527;33;20022;-93
2022/04/25 09:38:38;;;;;;;;;;;;;;;21.16;60.34;98768.44;4307470;33;20270;-95
2022/04/25 09:41:06;;;;;;;;;;;;;;;21.08;60.33;98769.16;4307457;33;19988;-95
2022/04/25 09:43:35;;;;;;;;;;;;;;;21.08;60.33;98774.44;4307644;33;20382;-94
2022/04/25 09:46:01;;;;;;;;;;;;;;;21.37;60.36;98773.63;4307697;33;19999;-94
2022/04/25 09:48:27;;;;;;;;;;;;;;;21.41;60.36;98767.91;4307293;33;20762;-93
2022/04/25 09:50:59;;;;;;;;;;;;;;;21.36;60.35;98770.12;4307772;33;20548;-95
2022/04/25 09:53:39;;;;;;;;;;;;;;;21.07;60.34;98779.88;4307465;33;20342;-96
2022/04/25 09:56:18;;;;;;;;;;;;;;;20.89;60.33;98790.31;4307476;33;20000;-94
2022/04/25 09:58:44;;;;;;;;;;;;;;;20.68;60.32;98784.28;4307742;33;19995;-95
2022/04/25 10:01:13;;;;;;;;;;;;;;;20.71;60.32;98794.56;4307290;33;19985;-93
2022/04/25 10:03:38;;;;;;;;;;;;;;;20.83;60.33;98804.09;4307359;33;19993;-94
2022/04/25 10:06:04;;;;;;;;;;;;;;;20.84;60.32;98792.53;4307301;33;20063;-94
2022/04/25 10:08:29;;;;;;;;;;;;;;;20.82;60.33;98795.31;4307243;33;20005;-93
2022/04/25 10:10:56;;;;;;;;;;;;;;;21.11;60.35;98800.62;4306983;33;24226;-94
2022/04/25 10:13:21;;;;;;;;;;;;;;;21.01;60.34;98798.94;4307447;33;20012;-94
2022/04/25 10:15:47;;;;;;;;;;;;;;;21.26;60.35;98792.28;4307458;33;20275;-95
2022/04/25 10:18:12;;;;;;;;;;;;;;;21.41;60.36;98793.53;4307047;33;20130;-94
2022/04/25 10:20:38;;;;;;;;;;;;;;;21.77;60.38;98797.25;4307090;33;20018;-94
2022/04/25 10:23:21;;;;;;;;;;;;;;;22.05;60.39;98788.41;4307275;33;20335;-93
2022/04/25 10:25:48;;;;;;;;;;;;;;;22.19;60.40;98794.19;4307183;33;20678;-93
2022/04/25 10:28:15;;;;;;;;;;;;;;;22.21;60.40;98785.12;4307220;33;19956;-95
2022/04/25 10:30:40;;;;;;;;;;;;;;;22.61;60.43;98799.88;4307311;33;19992;-95
2022/04/25 10:33:23;;;;;;;;;;;;;;;22.46;60.41;98801.34;4307299;33;20011;-95
2022/04/25 10:35:49;;;;;;;;;;;;;;;22.33;60.41;98802.53;4307193;33;20004;-94
2022/04/25 10:44:17;;;;;;;;;;;;;;;21.38;60.37;98810.53;4311080;33;20000;-95
2022/04/25 10:47:01;;;;;;;;;;;;;;;21.51;60.37;98807.59;4308767;33;20018;-94
2022/04/25 10:49:27;;;;;;;;;;;;;;;21.49;60.37;98814.00;4307443;33;20042;-95
2022/04/25 10:51:52;;;;;;;;;;;;;;;21.53;60.37;98810.97;4307720;33;19980;-93
2022/04/25 10:54:23;;;;;;;;;;;;;;;21.65;60.38;98816.91;4307158;33;20311;-95
2022/04/25 10:57:14;;;;;;;;;;;;;;;21.57;60.38;98820.28;4307489;33;20051;-95
2022/04/25 10:59:40;;;;;;;;;;;;;;;21.78;60.38;98824.59;4315582;33;20039;-94
2022/04/25 11:02:24;;;;;;;;;;;;;;;21.95;60.40;98821.16;4307316;33;20350;-95
2022/04/25 11:05:08;;;;;;;;;;;;;;;22.13;60.40;98831.91;4307285;33;19996;-94
2022/04/25 11:07:35;;;;;;;;;;;;;;;22.03;60.40;98834.56;4307243;33;19995;-96
2022/04/25 11:10:01;;;;;;;;;;;;;;;21.96;60.39;98831.62;4307882;33;20362;-96
2022/04/25 11:12:45;;;;;;;;;;;;;;;22.22;60.40;98833.66;4307029;33;19999;-95
2022/04/25 11:15:10;;;;;;;;;;;;;;;22.37;60.41;98824.28;4320471;33;19971;-96
2022/04/25 11:17:35;;;;;;;;;;;;;;;22.50;60.42;98840.69;4306575;33;20011;-96
2022/04/25 11:20:02;;;;;;;;;;;;;;;22.65;60.43;98838.38;4306589;33;20686;-96
2022/04/25 11:22:46;;;;;;;;;;;;;;;22.64;60.43;98849.97;4307199;33;19996;-95
2022/04/25 11:25:27;;;;;;;;;;;;;;;22.83;60.44;98838.44;4307220;33;20048;-92
2022/04/25 11:28:05;;;;;;;;;;;;;;;22.32;60.42;98847.75;4306785;33;19999;-95
2022/04/25 11:30:30;;;;;;;;;;;;;;;22.07;60.40;98849.22;4306631;33;19995;-95
2022/04/25 11:33:05;;;;;;;;;;;;;;;22.08;60.40;98853.53;4307043;33;20034;-94
2022/04/25 11:35:30;;;;;;;;;;;;;;;22.11;60.40;98845.28;4306887;33;19975;-95
2022/04/25 11:37:56;;;;;;;;;;;;;;;22.35;60.41;98855.41;4307599;33;20318;-95
2022/04/25 11:40:22;;;;;;;;;;;;;;;22.41;60.42;98851.31;4308179;33;19976;-96
2022/04/25 11:42:47;;;;;;;;;;;;;;;22.46;60.41;98863.16;4310054;33;20070;-95
2022/04/25 11:45:12;;;;;;;;;;;;;;;22.25;60.41;98858.09;4310039;33;20349;-96
2022/04/25 11:47:38;;;;;;;;;;;;;;;22.29;60.41;98869.25;4310433;33;19984;-96
2022/04/25 11:50:04;;;;;;;;;;;;;;;22.19;60.41;98873.72;4310138;33;19998;-96
2022/04/25 11:52:29;;;;;;;;;;;;;;;22.11;60.40;98871.81;4309442;33;20027;-96
2022/04/25 11:54:56;;;;;;;;;;;;;;;22.10;60.41;98880.72;4310346;33;20027;-96
2022/04/25 11:57:22;;;;;;;;;;;;;;;21.92;60.38;98875.28;4311958;33;19965;-96
2022/04/25 11:59:47;;;;;;;;;;;;;;;22.33;60.42;98873.28;4311093;33;20008;-95
2022/04/25 12:02:12;;;;;;;;;;;;;;;22.34;60.42;98878.44;4308964;33;20019;-95
2022/04/25 12:04:38;;;;;;;;;;;;;;;21.94;60.40;98877.78;4309375;33;19996;-96
2022/04/25 12:07:10;;;;;;;;;;;;;;;21.80;60.39;98870.31;4309170;33;20000;-94
2022/04/25 12:15:36;;;;;;;;;;;;;;;22.16;60.41;98880.16;4311795;33;19999;-94
2022/04/25 12:18:11;;;;;;;;;;;;;;;21.97;60.40;98874.84;4310775;33;19995;-93
2022/04/25 12:20:37;;;;;;;;;;;;;;;22.13;60.40;98869.84;4309976;33;20346;-96
2022/04/25 12:23:05;;;;;;;;;;;;;;;22.18;60.41;98877.34;4309163;33;19976;-96
2022/04/25 12:25:32;;;;;;;;;;;;;;;22.50;60.42;98863.72;4309134;33;20004;-93
2022/04/25 12:28:01;;;;;;;;;;;;;;;22.20;60.41;98878.03;4309282;33;20019;-95
2022/04/25 12:30:28;;;;;;;;;;;;;;;22.19;60.41;98882.50;4309011;33;19948;-95
2022/04/25 12:33:09;;;;;;;;;;;;;;;22.26;60.41;98885.44;4309994;33;20050;-96
2022/04/25 12:35:37;;;;;;;;;;;;;;;22.29;60.41;98887.81;4310226;33;19956;-95
2022/04/25 12:38:06;;;;;;;;;;;;;;;22.35;60.42;98890.72;4310852;33;20105;-96
2022/04/25 12:40:50;;;;;;;;;;;;;;;22.22;60.41;98892.00;4311768;33;19976;-93
2022/04/25 12:43:32;;;;;;;;;;;;;;;21.92;60.39;98885.06;4308987;33;20030;-95
2022/04/25 12:45:58;;;;;;;;;;;;;;;21.78;60.39;98889.00;4309534;33;20008;-95
2022/04/25 12:48:23;;;;;;;;;;;;;;;21.89;60.39;98882.69;4309702;33;20000;-95
2022/04/25 12:50:48;;;;;;;;;;;;;;;21.67;60.38;98895.25;4308618;33;20003;-95
2022/04/25 12:53:14;;;;;;;;;;;;;;;21.92;60.38;98893.00;4309563;33;19988;-96
2022/04/25 12:55:47;;;;;;;;;;;;;;;21.95;60.40;98913.91;4310172;33;20322;-96
2022/04/25 12:58:12;;;;;;;;;;;;;;;21.76;60.38;98898.88;4310876;33;19968;-94
2022/04/25 13:00:41;;;;;;;;;;;;;;;21.65;60.38;98899.03;4309670;33;19996;-95
2022/04/25 13:03:08;;;;;;;;;;;;;;;21.76;60.38;98899.69;4309793;33;20077;-96
2022/04/25 13:05:33;;;;;;;;;;;;;;;21.69;60.38;98909.19;4309708;33;19984;-95
2022/04/25 13:07:58;;;;;;;;;;;;;;;21.59;60.37;98908.38;4307954;33;21983;-94
2022/04/25 13:10:25;;;;;;;;;;;;;;;21.38;60.36;98912.94;4308866;33;19994;-96
2022/04/25 13:12:54;;;;;;;;;;;;;;;21.35;60.36;98919.34;4310469;33;20322;-95
2022/04/25 13:15:19;;;;;;;;;;;;;;;21.12;60.35;98904.66;4309048;33;20052;-92
2022/04/25 13:17:51;;;;;;;;;;;;;;;21.27;60.36;98900.66;4309461;33;19991;-96
2022/04/25 13:20:20;;;;;;;;;;;;;;;21.35;60.36;98900.00;4322427;33;19984;-94
2022/04/25 13:22:45;;;;;;;;;;;;;;;21.05;60.35;98908.81;4308964;33;19989;-96